createdAt,value
2023-02-07T00:16:44.000Z,89.0
2023-02-07T00:46:49.000Z,85.0
2023-02-07T01:16:53.000Z,83.0
2023-02-07T01:46:57.000Z,85.0
2023-02-07T02:17:02.000Z,86.0
2023-02-07T02:47:07.000Z,88.0
2023-02-07T03:17:10.000Z,85.0
2023-02-07T03:47:15.000Z,85.0
2023-02-07T04:17:24.000Z,88.0
2023-02-07T04:47:27.000Z,92.0
2023-02-07T05:17:31.000Z,92.0
2023-02-07T05:47:37.000Z,94.0
2023-02-07T06:17:43.000Z,95.0
2023-02-07T06:47:49.000Z,96.0
2023-02-07T07:17:54.000Z,96.0
2023-02-07T07:48:00.000Z,96.0
2023-02-07T08:18:09.000Z,96.0
2023-02-07T08:48:12.000Z,96.0
2023-02-07T09:18:16.000Z,93.0
2023-02-07T09:48:20.000Z,88.0
2023-02-07T10:18:27.000Z,87.0
2023-02-07T10:48:33.000Z,77.0
2023-02-07T11:18:42.000Z,74.0
2023-02-07T11:48:46.000Z,72.0
2023-02-07T12:18:47.000Z,71.0
2023-02-07T12:48:53.000Z,67.0
2023-02-07T13:19:00.000Z,66.0
2023-02-07T13:49:06.000Z,67.0
2023-02-07T14:19:11.000Z,69.0
2023-02-07T14:49:17.000Z,72.0
2023-02-07T15:19:22.000Z,80.0
2023-02-07T15:49:26.000Z,79.0
2023-02-07T16:19:30.000Z,80.0
2023-02-07T16:49:38.000Z,84.0
2023-02-07T17:19:42.000Z,86.0
2023-02-07T17:49:49.000Z,89.0
2023-02-07T18:19:59.000Z,92.0
2023-02-07T18:50:09.000Z,93.0
2023-02-07T19:20:16.000Z,93.0
2023-02-07T19:50:26.000Z,94.0
2023-02-07T20:20:32.000Z,95.0
2023-02-07T20:50:38.000Z,94.0
2023-02-07T21:20:43.000Z,95.0
2023-02-07T21:50:49.000Z,95.0
2023-02-07T22:20:58.000Z,95.0
2023-02-07T22:21:08.000Z,95.0
2023-02-07T22:21:19.000Z,95.0
2023-02-07T22:21:32.000Z,95.0
2023-02-07T22:21:43.000Z,95.0
2023-02-07T22:56:21.000Z,96.0
2023-02-07T22:57:55.000Z,96.0
2023-02-07T22:59:29.000Z,96.0
2023-02-07T23:01:13.000Z,96.0
2023-02-07T23:02:48.000Z,96.0
2023-02-07T23:41:18.000Z,96.0
